Time;durP1;ratioP1;P1;durP2;ratioP2;P2;SDS_P1;SDS_P2;PMS_P1;PMS_P2;Temp;Humidity;BMP_temperature;BMP_pressure;BME280_temperature;BME280_humidity;BME280_pressure;Samples;Min_cycle;Max_cycle;Signal;HPM_P1;HPM_P2
2023/10/31 00:01:16;;;;;;;0.50;0.50;;;;;;;;;;5074681;28;20216;-68
2023/10/31 00:03:44;;;;;;;0.30;0.30;;;;;;;;;;5074465;28;20255;-68
2023/10/31 00:06:10;;;;;;;0.43;0.40;;;;;;;;;;5074053;28;20201;-68
2023/10/31 00:08:37;;;;;;;1.20;0.35;;;;;;;;;;5074445;28;20204;-68
2023/10/31 00:11:03;;;;;;;0.45;0.40;;;;;;;;;;5074449;28;20212;-68
2023/10/31 00:13:30;;;;;;;0.32;0.32;;;;;;;;;;5074331;28;20556;-68
2023/10/31 00:15:56;;;;;;;0.43;0.30;;;;;;;;;;5074265;28;20224;-68
2023/10/31 00:18:22;;;;;;;0.32;0.32;;;;;;;;;;5074693;28;20211;-68
2023/10/31 00:20:50;;;;;;;0.45;0.40;;;;;;;;;;5074075;28;20240;-69
2023/10/31 00:23:16;;;;;;;0.30;0.30;;;;;;;;;;5074260;28;20208;-69
2023/10/31 00:25:42;;;;;;;0.35;0.30;;;;;;;;;;5073486;28;20243;-69
2023/10/31 00:28:08;;;;;;;1.27;0.40;;;;;;;;;;5072944;28;20706;-69
2023/10/31 00:30:35;;;;;;;0.40;0.40;;;;;;;;;;5073904;28;20575;-69
2023/10/31 00:33:01;;;;;;;0.30;0.30;;;;;;;;;;5074183;28;20207;-69
2023/10/31 00:35:27;;;;;;;0.28;0.28;;;;;;;;;;5073647;28;20224;-68
2023/10/31 00:37:55;;;;;;;0.32;0.30;;;;;;;;;;5073980;28;20201;-68
2023/10/31 00:40:21;;;;;;;0.65;0.40;;;;;;;;;;5074050;28;20226;-68
2023/10/31 00:42:47;;;;;;;0.77;0.35;;;;;;;;;;5074104;28;20566;-68
2023/10/31 00:45:14;;;;;;;0.30;0.30;;;;;;;;;;5073548;28;20239;-68
2023/10/31 00:47:40;;;;;;;0.95;0.20;;;;;;;;;;5073848;28;20201;-69
2023/10/31 00:50:07;;;;;;;0.30;0.30;;;;;;;;;;5073668;28;20246;-68
2023/10/31 00:52:34;;;;;;;0.85;0.25;;;;;;;;;;5073816;28;20204;-68
2023/10/31 00:55:01;;;;;;;0.32;0.32;;;;;;;;;;5073362;28;20220;-68
2023/10/31 00:57:27;;;;;;;0.63;0.30;;;;;;;;;;5073608;28;20200;-68
2023/10/31 00:59:54;;;;;;;0.30;0.30;;;;;;;;;;5073416;28;20201;-68
2023/10/31 01:02:20;;;;;;;0.47;0.40;;;;;;;;;;5073692;28;20616;-68
2023/10/31 01:04:46;;;;;;;0.28;0.28;;;;;;;;;;5073058;28;20228;-68
2023/10/31 01:07:16;;;;;;;0.30;0.20;;;;;;;;;;5073119;28;20205;-68
2023/10/31 01:09:43;;;;;;;1.38;0.30;;;;;;;;;;5073749;28;20678;-68
2023/10/31 01:12:11;;;;;;;0.25;0.25;;;;;;;;;;5073544;28;20196;-68
2023/10/31 01:14:37;;;;;;;0.50;0.30;;;;;;;;;;5073285;28;20227;-68
2023/10/31 01:17:03;;;;;;;0.30;0.30;;;;;;;;;;5073104;28;20691;-68
2023/10/31 01:19:30;;;;;;;0.30;0.30;;;;;;;;;;5073155;28;20571;-68
2023/10/31 01:21:56;;;;;;;0.30;0.30;;;;;;;;;;5073073;28;20244;-68
2023/10/31 01:24:23;;;;;;;0.20;0.20;;;;;;;;;;5073086;28;20220;-68
2023/10/31 01:26:49;;;;;;;0.90;0.40;;;;;;;;;;5072995;28;20208;-67
2023/10/31 01:29:17;;;;;;;0.75;0.20;;;;;;;;;;5072747;28;20196;-67
2023/10/31 01:31:43;;;;;;;0.30;0.30;;;;;;;;;;5072818;28;20212;-67
2023/10/31 01:34:09;;;;;;;0.75;0.30;;;;;;;;;;5072556;28;20225;-67
2023/10/31 01:36:36;;;;;;;0.35;0.30;;;;;;;;;;5072419;28;20201;-67
2023/10/31 01:39:02;;;;;;;1.85;0.38;;;;;;;;;;5072630;28;20201;-67
2023/10/31 01:41:28;;;;;;;0.30;0.30;;;;;;;;;;5072613;28;20211;-67
2023/10/31 01:43:54;;;;;;;1.95;0.40;;;;;;;;;;5072521;28;20204;-67
2023/10/31 01:46:22;;;;;;;2.92;0.30;;;;;;;;;;5072266;28;20217;-67
2023/10/31 01:48:48;;;;;;;0.47;0.30;;;;;;;;;;5072271;28;20211;-67
2023/10/31 01:51:15;;;;;;;0.75;0.50;;;;;;;;;;5072218;28;20204;-67
2023/10/31 01:53:41;;;;;;;2.15;0.40;;;;;;;;;;5072256;28;20207;-67
2023/10/31 01:56:07;;;;;;;1.10;0.40;;;;;;;;;;5072068;28;20227;-67
2023/10/31 01:58:35;;;;;;;3.38;0.43;;;;;;;;;;5072443;28;20192;-67
2023/10/31 02:01:02;;;;;;;2.97;0.47;;;;;;;;;;5072276;28;20201;-67
2023/10/31 02:03:29;;;;;;;1.10;0.40;;;;;;;;;;5072260;28;20208;-67
2023/10/31 02:05:56;;;;;;;1.08;0.45;;;;;;;;;;5071992;28;20248;-67
2023/10/31 02:08:22;;;;;;;1.42;0.50;;;;;;;;;;5072409;28;20207;-67
2023/10/31 02:10:48;;;;;;;0.82;0.40;;;;;;;;;;5072013;28;20663;-67
2023/10/31 02:13:16;;;;;;;3.13;0.45;;;;;;;;;;5072220;28;20200;-67
2023/10/31 02:15:42;;;;;;;3.40;0.47;;;;;;;;;;5071651;28;20708;-67
2023/10/31 02:18:09;;;;;;;0.30;0.30;;;;;;;;;;5072039;28;20200;-67
2023/10/31 02:20:37;;;;;;;4.07;0.50;;;;;;;;;;5072161;28;20215;-67
2023/10/31 02:23:05;;;;;;;1.30;0.47;;;;;;;;;;5072202;28;20201;-67
2023/10/31 02:25:31;;;;;;;1.77;0.60;;;;;;;;;;5071843;28;20311;-68
2023/10/31 02:27:57;;;;;;;1.00;0.57;;;;;;;;;;5072119;28;20236;-68
2023/10/31 02:30:24;;;;;;;0.52;0.47;;;;;;;;;;5072015;28;20200;-68
2023/10/31 02:32:50;;;;;;;0.40;0.40;;;;;;;;;;5071755;28;20212;-68
2023/10/31 02:35:17;;;;;;;0.55;0.55;;;;;;;;;;5071361;28;20708;-68
2023/10/31 02:37:43;;;;;;;0.50;0.50;;;;;;;;;;5071892;28;20295;-68
2023/10/31 02:40:12;;;;;;;0.50;0.50;;;;;;;;;;5071700;28;20594;-68
2023/10/31 02:42:38;;;;;;;0.45;0.45;;;;;;;;;;5071581;28;20680;-68
2023/10/31 02:45:05;;;;;;;2.05;0.60;;;;;;;;;;5071392;28;20235;-68
2023/10/31 02:47:31;;;;;;;3.83;0.52;;;;;;;;;;5071489;28;20586;-68
2023/10/31 02:49:57;;;;;;;2.10;0.60;;;;;;;;;;5071345;28;20227;-68
2023/10/31 02:52:24;;;;;;;0.47;0.47;;;;;;;;;;5072058;28;20204;-68
2023/10/31 02:54:50;;;;;;;0.52;0.50;;;;;;;;;;5071384;28;20220;-68
2023/10/31 02:57:18;;;;;;;0.32;0.32;;;;;;;;;;5071422;28;20749;-68
2023/10/31 02:59:44;;;;;;;1.02;0.50;;;;;;;;;;5071448;28;20571;-68
2023/10/31 03:02:11;;;;;;;4.20;0.50;;;;;;;;;;5071860;28;20215;-68
2023/10/31 03:04:37;;;;;;;5.47;0.60;;;;;;;;;;5071441;28;20244;-68
2023/10/31 03:07:04;;;;;;;2.92;0.50;;;;;;;;;;5071408;28;20211;-68
2023/10/31 03:09:30;;;;;;;0.40;0.40;;;;;;;;;;5071540;28;20579;-68
2023/10/31 03:11:56;;;;;;;2.47;0.50;;;;;;;;;;5071491;28;20207;-68
2023/10/31 03:14:24;;;;;;;0.40;0.40;;;;;;;;;;5070993;28;20568;-68
2023/10/31 03:16:51;;;;;;;1.88;0.40;;;;;;;;;;5071595;28;20203;-67
2023/10/31 03:19:17;;;;;;;1.10;0.50;;;;;;;;;;5073312;28;20208;-67
2023/10/31 03:21:43;;;;;;;0.80;0.50;;;;;;;;;;5077641;28;20209;-67
2023/10/31 03:24:10;;;;;;;2.28;0.25;;;;;;;;;;5078019;28;20227;-68
2023/10/31 03:26:36;;;;;;;1.98;0.40;;;;;;;;;;5078210;28;20595;-68
2023/10/31 03:29:02;;;;;;;1.75;0.50;;;;;;;;;;5073227;28;20212;-68
2023/10/31 03:31:30;;;;;;;0.75;0.38;;;;;;;;;;5077920;28;20205;-68
2023/10/31 03:33:56;;;;;;;0.75;0.47;;;;;;;;;;5074418;28;20213;-68
2023/10/31 03:36:22;;;;;;;1.60;0.47;;;;;;;;;;5071769;28;20208;-68
2023/10/31 03:38:48;;;;;;;0.93;0.35;;;;;;;;;;5073373;28;20581;-68
2023/10/31 03:41:15;;;;;;;2.10;0.35;;;;;;;;;;5078986;28;20227;-68
2023/10/31 03:43:41;;;;;;;0.47;0.30;;;;;;;;;;5079849;28;20212;-69
2023/10/31 03:46:08;;;;;;;1.42;0.45;;;;;;;;;;5080250;28;20224;-68
2023/10/31 03:48:35;;;;;;;0.32;0.30;;;;;;;;;;5080138;28;20227;-68
2023/10/31 03:51:01;;;;;;;0.47;0.30;;;;;;;;;;5080991;28;20216;-68
2023/10/31 03:53:28;;;;;;;0.95;0.40;;;;;;;;;;5079658;28;20204;-69
2023/10/31 03:55:54;;;;;;;2.28;0.50;;;;;;;;;;5080430;28;20727;-69
2023/10/31 03:58:20;;;;;;;0.30;0.30;;;;;;;;;;5078821;28;20231;-68
2023/10/31 04:00:47;;;;;;;1.33;0.35;;;;;;;;;;5080134;28;20197;-68
2023/10/31 04:03:13;;;;;;;0.68;0.40;;;;;;;;;;5080163;28;20201;-68
2023/10/31 04:05:41;;;;;;;1.40;0.40;;;;;;;;;;5077179;28;20225;-68
2023/10/31 04:08:07;;;;;;;1.30;0.30;;;;;;;;;;5077731;28;20200;-67
2023/10/31 04:10:33;;;;;;;0.30;0.30;;;;;;;;;;5075528;28;20487;-67
2023/10/31 04:12:59;;;;;;;0.93;0.30;;;;;;;;;;5074815;28;20208;-68
2023/10/31 04:15:26;;;;;;;0.35;0.35;;;;;;;;;;5074498;28;20220;-68
2023/10/31 04:17:52;;;;;;;0.88;0.70;;;;;;;;;;5078299;28;20200;-68
2023/10/31 04:20:18;;;;;;;2.45;0.30;;;;;;;;;;5080742;28;20204;-68
2023/10/31 04:22:46;;;;;;;0.75;0.38;;;;;;;;;;5074281;28;20675;-68
2023/10/31 04:25:12;;;;;;;1.85;0.40;;;;;;;;;;5074155;28;20220;-68
2023/10/31 04:27:38;;;;;;;0.85;0.30;;;;;;;;;;5074460;28;20207;-68
2023/10/31 04:30:05;;;;;;;0.63;0.60;;;;;;;;;;5074711;28;20207;-68
2023/10/31 04:32:31;;;;;;;0.35;0.35;;;;;;;;;;5079375;28;20672;-68
2023/10/31 04:34:58;;;;;;;0.30;0.30;;;;;;;;;;5074274;28;20220;-68
2023/10/31 04:37:24;;;;;;;0.88;0.35;;;;;;;;;;5073796;28;20200;-68
2023/10/31 04:39:52;;;;;;;0.25;0.25;;;;;;;;;;5078154;28;20627;-68
2023/10/31 04:42:20;;;;;;;1.42;0.30;;;;;;;;;;5074096;28;20219;-68
2023/10/31 04:44:46;;;;;;;0.43;0.38;;;;;;;;;;5073775;28;20235;-67
2023/10/31 04:47:12;;;;;;;0.40;0.40;;;;;;;;;;5073845;28;20270;-68
2023/10/31 04:49:39;;;;;;;0.40;0.40;;;;;;;;;;5073766;28;20197;-68
2023/10/31 04:52:05;;;;;;;0.40;0.30;;;;;;;;;;5073672;28;20207;-68
2023/10/31 04:54:32;;;;;;;0.57;0.38;;;;;;;;;;5073608;28;20247;-68
2023/10/31 04:56:59;;;;;;;0.35;0.32;;;;;;;;;;5073794;28;20203;-68
2023/10/31 04:59:25;;;;;;;1.30;0.38;;;;;;;;;;5073811;28;20258;-68
2023/10/31 05:01:52;;;;;;;0.40;0.40;;;;;;;;;;5073846;28;20201;-68
2023/10/31 05:04:18;;;;;;;1.55;0.40;;;;;;;;;;5073595;28;20220;-68
2023/10/31 05:06:44;;;;;;;1.55;0.35;;;;;;;;;;5073281;28;20708;-68
2023/10/31 05:09:11;;;;;;;0.55;0.30;;;;;;;;;;5073340;28;20208;-69
2023/10/31 05:11:37;;;;;;;0.30;0.30;;;;;;;;;;5073687;28;20257;-68
2023/10/31 05:14:05;;;;;;;0.45;0.30;;;;;;;;;;5073031;28;20200;-69
2023/10/31 05:16:32;;;;;;;0.75;0.30;;;;;;;;;;5073203;28;20207;-69
2023/10/31 05:18:59;;;;;;;0.38;0.38;;;;;;;;;;5073444;28;20200;-68
2023/10/31 05:21:26;;;;;;;1.02;0.65;;;;;;;;;;5073172;28;20638;-69
2023/10/31 05:23:53;;;;;;;1.85;0.40;;;;;;;;;;5073394;28;20299;-68
2023/10/31 05:26:19;;;;;;;0.40;0.40;;;;;;;;;;5072762;28;20714;-68
2023/10/31 05:28:45;;;;;;;1.35;0.40;;;;;;;;;;5073187;28;20208;-68
2023/10/31 05:31:15;;;;;;;0.45;0.45;;;;;;;;;;5072893;28;20205;-68
2023/10/31 05:33:42;;;;;;;0.40;0.40;;;;;;;;;;5073093;28;20289;-69
2023/10/31 05:36:18;;;;;;;0.50;0.50;;;;;;;;;;5072296;28;20220;-68
2023/10/31 05:38:44;;;;;;;1.13;0.50;;;;;;;;;;5073067;28;20207;-68
2023/10/31 05:41:10;;;;;;;1.40;0.50;;;;;;;;;;5072664;28;20207;-68
2023/10/31 05:43:37;;;;;;;1.95;0.65;;;;;;;;;;5072702;28;20196;-69
2023/10/31 05:46:03;;;;;;;0.30;0.30;;;;;;;;;;5073612;28;20220;-61
2023/10/31 05:48:31;;;;;;;0.88;0.47;;;;;;;;;;5079870;28;20287;-61
2023/10/31 05:50:57;;;;;;;1.85;0.40;;;;;;;;;;5079984;28;20200;-61
2023/10/31 05:53:23;;;;;;;0.40;0.40;;;;;;;;;;5079950;28;20196;-60
2023/10/31 05:55:50;;;;;;;3.60;0.45;;;;;;;;;;5079165;28;20239;-60
2023/10/31 05:58:16;;;;;;;2.58;0.50;;;;;;;;;;5078911;28;20220;-61
2023/10/31 06:00:42;;;;;;;0.32;0.32;;;;;;;;;;5078592;28;20200;-60
2023/10/31 06:03:09;;;;;;;1.00;0.70;;;;;;;;;;5079370;28;20211;-62
2023/10/31 06:05:36;;;;;;;0.57;0.55;;;;;;;;;;5079447;28;20700;-62
2023/10/31 06:08:03;;;;;;;0.60;0.60;;;;;;;;;;5079609;28;20460;-61
2023/10/31 06:10:29;;;;;;;0.40;0.40;;;;;;;;;;5079864;28;20211;-61
2023/10/31 06:12:55;;;;;;;2.60;0.60;;;;;;;;;;5079297;28;20200;-61
2023/10/31 06:15:21;;;;;;;0.80;0.65;;;;;;;;;;5079801;28;20227;-61
2023/10/31 06:17:48;;;;;;;0.50;0.50;;;;;;;;;;5079358;28;20199;-61
2023/10/31 06:20:14;;;;;;;3.92;0.70;;;;;;;;;;5079433;28;20213;-62
2023/10/31 06:22:41;;;;;;;0.52;0.52;;;;;;;;;;5079867;28;20532;-60
2023/10/31 06:25:08;;;;;;;0.73;0.73;;;;;;;;;;5078360;28;20227;-61
2023/10/31 06:27:34;;;;;;;1.17;0.55;;;;;;;;;;5080009;28;20234;-61
2023/10/31 06:30:00;;;;;;;0.95;0.60;;;;;;;;;;5079275;28;20203;-61
2023/10/31 06:32:27;;;;;;;0.47;0.47;;;;;;;;;;5079591;28;20200;-61
2023/10/31 06:34:53;;;;;;;0.60;0.60;;;;;;;;;;5079324;28;20220;-61
2023/10/31 06:37:19;;;;;;;1.85;0.50;;;;;;;;;;5079070;28;20549;-61
2023/10/31 06:39:47;;;;;;;0.52;0.52;;;;;;;;;;5079507;28;20287;-61
2023/10/31 06:42:13;;;;;;;0.63;0.60;;;;;;;;;;5079448;28;20298;-62
2023/10/31 06:44:40;;;;;;;1.83;0.70;;;;;;;;;;5078906;28;20700;-61
2023/10/31 06:47:06;;;;;;;3.25;0.73;;;;;;;;;;5080014;28;20523;-60
2023/10/31 06:49:32;;;;;;;0.60;0.60;;;;;;;;;;5079423;28;20208;-61
2023/10/31 06:51:58;;;;;;;0.60;0.60;;;;;;;;;;5079765;28;20204;-61
2023/10/31 06:54:25;;;;;;;1.13;0.60;;;;;;;;;;5079499;28;20714;-60
2023/10/31 06:56:52;;;;;;;0.70;0.70;;;;;;;;;;5079595;28;20192;-61
2023/10/31 06:59:18;;;;;;;1.27;0.60;;;;;;;;;;5079475;28;20207;-60
2023/10/31 07:01:46;;;;;;;0.63;0.50;;;;;;;;;;5078282;28;20208;-60
2023/10/31 07:04:13;;;;;;;1.23;0.45;;;;;;;;;;5079381;28;20281;-61
2023/10/31 07:06:40;;;;;;;3.30;0.70;;;;;;;;;;5079295;28;20220;-61
2023/10/31 07:09:06;;;;;;;0.40;0.40;;;;;;;;;;5079425;28;20203;-62
2023/10/31 07:11:33;;;;;;;1.65;0.65;;;;;;;;;;5079889;28;20207;-62
2023/10/31 07:14:01;;;;;;;0.63;0.50;;;;;;;;;;5077891;28;20200;-62
2023/10/31 07:16:28;;;;;;;1.55;0.40;;;;;;;;;;5077858;28;20648;-60
2023/10/31 07:18:54;;;;;;;0.50;0.40;;;;;;;;;;5078736;28;20207;-60
2023/10/31 07:21:20;;;;;;;0.98;0.50;;;;;;;;;;5099110;22;20232;-60
2023/10/31 07:23:46;;;;;;;0.60;0.60;;;;;;;;;;5079646;28;20196;-60
2023/10/31 07:26:12;;;;;;;0.75;0.50;;;;;;;;;;5080855;28;20216;-60
2023/10/31 07:28:38;;;;;;;0.50;0.50;;;;;;;;;;5083552;28;20202;-60
2023/10/31 07:31:06;;;;;;;0.82;0.65;;;;;;;;;;5082752;28;20203;-60
2023/10/31 07:33:33;;;;;;;1.75;0.50;;;;;;;;;;5079648;28;20231;-60
2023/10/31 07:35:59;;;;;;;0.50;0.50;;;;;;;;;;5080285;28;20586;-60
2023/10/31 07:38:26;;;;;;;1.45;0.52;;;;;;;;;;5086520;28;20207;-60
2023/10/31 07:40:52;;;;;;;0.50;0.50;;;;;;;;;;5086779;28;20225;-60
2023/10/31 07:43:18;;;;;;;0.63;0.60;;;;;;;;;;5084356;28;20204;-60
2023/10/31 07:45:44;;;;;;;0.47;0.40;;;;;;;;;;5082876;28;20721;-60
2023/10/31 07:48:12;;;;;;;0.50;0.50;;;;;;;;;;5084243;28;20634;-60
2023/10/31 07:50:38;;;;;;;2.35;0.70;;;;;;;;;;5086691;28;20211;-60
2023/10/31 07:53:05;;;;;;;0.63;0.50;;;;;;;;;;5086603;28;20196;-60
2023/10/31 07:55:31;;;;;;;1.52;0.50;;;;;;;;;;5082825;28;20216;-60
2023/10/31 07:57:57;;;;;;;1.85;0.50;;;;;;;;;;5083036;28;20209;-60
2023/10/31 08:00:23;;;;;;;4.38;0.77;;;;;;;;;;5085900;28;20429;-60
2023/10/31 08:02:50;;;;;;;1.05;0.68;;;;;;;;;;5086615;28;20204;-60
2023/10/31 08:05:17;;;;;;;1.85;0.80;;;;;;;;;;5084192;28;20703;-60
2023/10/31 08:07:44;;;;;;;2.17;0.60;;;;;;;;;;5082986;28;20224;-60
2023/10/31 08:10:10;;;;;;;0.77;0.60;;;;;;;;;;5083146;28;20668;-60
2023/10/31 08:12:36;;;;;;;1.33;0.40;;;;;;;;;;5086378;28;20192;-60
2023/10/31 08:15:02;;;;;;;0.88;0.50;;;;;;;;;;5086101;28;20215;-60
2023/10/31 08:17:29;;;;;;;0.47;0.47;;;;;;;;;;5082774;28;20193;-60
2023/10/31 08:19:55;;;;;;;1.42;0.68;;;;;;;;;;5082809;28;20208;-60
2023/10/31 08:22:23;;;;;;;0.52;0.52;;;;;;;;;;5084629;28;20205;-59
2023/10/31 08:24:49;;;;;;;0.68;0.55;;;;;;;;;;5085776;28;20223;-60
2023/10/31 08:27:15;;;;;;;2.25;0.63;;;;;;;;;;5084680;28;20227;-60
2023/10/31 08:29:42;;;;;;;0.50;0.50;;;;;;;;;;5082814;28;20204;-60
2023/10/31 08:32:08;;;;;;;1.52;0.70;;;;;;;;;;5082548;28;20599;-60
2023/10/31 08:34:34;;;;;;;2.45;0.60;;;;;;;;;;5082261;28;20216;-60
2023/10/31 08:37:00;;;;;;;1.38;0.80;;;;;;;;;;5082333;28;20611;-60
2023/10/31 08:39:28;;;;;;;2.50;0.80;;;;;;;;;;5084706;28;20200;-60
2023/10/31 08:41:55;;;;;;;1.55;0.60;;;;;;;;;;5085769;28;20405;-62
2023/10/31 08:44:21;;;;;;;0.88;0.80;;;;;;;;;;5083708;28;20223;-61
2023/10/31 08:46:48;;;;;;;2.15;1.00;;;;;;;;;;5081797;28;20224;-61
2023/10/31 08:49:15;;;;;;;5.53;0.63;;;;;;;;;;5081899;28;20688;-61
2023/10/31 08:51:41;;;;;;;2.70;0.60;;;;;;;;;;5085417;28;20196;-61
2023/10/31 08:54:08;;;;;;;2.05;0.70;;;;;;;;;;5085292;28;20224;-61
2023/10/31 08:56:36;;;;;;;0.45;0.43;;;;;;;;;;5082115;28;20192;-61
2023/10/31 08:59:02;;;;;;;2.25;0.70;;;;;;;;;;5081905;28;20689;-61
2023/10/31 09:01:29;;;;;;;0.70;0.60;;;;;;;;;;5084707;28;20224;-61
2023/10/31 09:03:55;;;;;;;3.10;0.93;;;;;;;;;;5085871;28;20208;-61
2023/10/31 09:06:22;;;;;;;3.05;0.68;;;;;;;;;;5083545;28;20570;-61
2023/10/31 09:08:48;;;;;;;5.43;0.80;;;;;;;;;;5082799;28;20234;-61
2023/10/31 09:11:14;;;;;;;2.10;0.75;;;;;;;;;;5082751;28;20196;-61
2023/10/31 09:13:42;;;;;;;3.13;0.60;;;;;;;;;;5086684;28;20216;-60
2023/10/31 09:16:09;;;;;;;1.50;0.47;;;;;;;;;;5085851;28;20224;-61
2023/10/31 09:18:35;;;;;;;1.55;0.73;;;;;;;;;;5081695;28;20197;-60
2023/10/31 09:21:01;;;;;;;1.95;0.50;;;;;;;;;;5081256;28;20200;-60
2023/10/31 09:23:29;;;;;;;1.63;0.73;;;;;;;;;;5083831;28;20205;-60
2023/10/31 09:25:56;;;;;;;4.18;0.73;;;;;;;;;;5084684;28;20224;-61
2023/10/31 09:28:22;;;;;;;0.88;0.52;;;;;;;;;;5083125;28;20215;-61
2023/10/31 09:30:50;;;;;;;0.95;0.52;;;;;;;;;;5081316;28;20204;-61
2023/10/31 09:33:16;;;;;;;1.92;0.55;;;;;;;;;;5081316;28;20204;-61
2023/10/31 09:35:43;;;;;;;3.65;0.73;;;;;;;;;;5081331;28;20231;-62
2023/10/31 09:38:09;;;;;;;3.50;0.65;;;;;;;;;;5081322;28;20200;-61
2023/10/31 09:40:36;;;;;;;0.90;0.60;;;;;;;;;;5084223;28;20199;-58
2023/10/31 09:43:03;;;;;;;3.83;0.52;;;;;;;;;;5084612;28;20694;-60
2023/10/31 09:45:29;;;;;;;1.90;0.40;;;;;;;;;;5081764;28;20215;-60
2023/10/31 09:47:57;;;;;;;3.42;0.70;;;;;;;;;;5080865;28;20223;-60
2023/10/31 09:50:24;;;;;;;0.90;0.90;;;;;;;;;;5081888;28;20680;-60
2023/10/31 09:52:51;;;;;;;1.90;0.65;;;;;;;;;;5087981;28;20200;-60
2023/10/31 09:55:17;;;;;;;1.25;0.50;;;;;;;;;;5080626;28;20225;-61
2023/10/31 09:57:43;;;;;;;3.00;0.70;;;;;;;;;;5084490;28;20603;-61
2023/10/31 10:00:10;;;;;;;3.60;0.65;;;;;;;;;;5084072;28;20208;-61
2023/10/31 10:02:36;;;;;;;1.67;0.70;;;;;;;;;;5081071;28;20262;-61
2023/10/31 10:05:04;;;;;;;0.70;0.70;;;;;;;;;;5080781;28;20222;-61
2023/10/31 10:07:30;;;;;;;0.85;0.77;;;;;;;;;;5082537;28;20216;-61
2023/10/31 10:09:57;;;;;;;5.50;0.90;;;;;;;;;;5084288;28;20204;-61
2023/10/31 10:12:23;;;;;;;2.80;0.90;;;;;;;;;;5083030;28;20210;-61
2023/10/31 10:14:50;;;;;;;5.60;0.98;;;;;;;;;;5080192;28;20220;-61
2023/10/31 10:17:17;;;;;;;6.13;1.05;;;;;;;;;;5080203;28;20201;-61
2023/10/31 10:19:43;;;;;;;1.70;0.65;;;;;;;;;;5075775;28;20207;-61
2023/10/31 10:22:11;;;;;;;2.88;0.73;;;;;;;;;;5083739;28;20207;-61
2023/10/31 10:24:40;;;;;;;4.68;1.10;;;;;;;;;;5080780;28;20236;-61
2023/10/31 10:27:08;;;;;;;3.05;0.65;;;;;;;;;;5080061;28;20243;-61
2023/10/31 10:29:34;;;;;;;1.85;0.68;;;;;;;;;;5082369;28;20729;-61
2023/10/31 10:32:00;;;;;;;3.05;0.70;;;;;;;;;;5083689;28;20204;-60
2023/10/31 10:34:27;;;;;;;1.13;0.45;;;;;;;;;;5082359;28;20223;-61
2023/10/31 10:36:54;;;;;;;1.42;1.10;;;;;;;;;;5080070;28;20204;-61
2023/10/31 10:39:22;;;;;;;3.42;0.93;;;;;;;;;;5080191;28;20200;-61
2023/10/31 10:41:53;;;;;;;3.63;0.82;;;;;;;;;;5083653;28;20208;-61
2023/10/31 10:44:20;;;;;;;2.55;0.70;;;;;;;;;;5083287;28;20238;-61
2023/10/31 10:46:48;;;;;;;3.33;0.90;;;;;;;;;;5080029;28;20204;-61
2023/10/31 10:49:15;;;;;;;1.20;0.80;;;;;;;;;;5080014;28;20217;-61
2023/10/31 10:51:45;;;;;;;1.98;0.70;;;;;;;;;;5083064;28;20196;-61
2023/10/31 10:54:15;;;;;;;2.50;0.90;;;;;;;;;;5083232;28;20588;-61
2023/10/31 10:56:47;;;;;;;4.65;0.80;;;;;;;;;;5080283;28;20208;-61
2023/10/31 10:59:15;;;;;;;2.33;0.90;;;;;;;;;;5080094;28;20192;-61
2023/10/31 11:01:42;;;;;;;2.45;0.88;;;;;;;;;;5082861;28;20203;-61
2023/10/31 11:04:08;;;;;;;2.60;0.80;;;;;;;;;;5083256;28;20232;-61
2023/10/31 11:06:35;;;;;;;2.65;1.00;;;;;;;;;;5080874;28;20580;-61
2023/10/31 11:09:04;;;;;;;3.08;1.25;;;;;;;;;;5079757;28;20251;-61
2023/10/31 11:11:30;;;;;;;5.25;0.90;;;;;;;;;;5082638;28;20291;-61
2023/10/31 11:13:59;;;;;;;2.67;0.82;;;;;;;;;;5087425;28;20200;-60
2023/10/31 11:16:29;;;;;;;1.52;1.08;;;;;;;;;;5086736;28;20231;-61
2023/10/31 11:18:56;;;;;;;2.72;1.05;;;;;;;;;;5083734;28;20197;-60
2023/10/31 11:21:23;;;;;;;3.42;0.70;;;;;;;;;;5083683;28;20211;-60
2023/10/31 11:23:57;;;;;;;5.47;1.15;;;;;;;;;;5083616;28;20192;-61
2023/10/31 11:26:26;;;;;;;2.60;0.90;;;;;;;;;;5083300;28;20196;-61
2023/10/31 11:28:52;;;;;;;1.85;0.82;;;;;;;;;;5086987;28;20212;-61
2023/10/31 11:31:20;;;;;;;3.38;1.23;;;;;;;;;;5087068;28;20199;-61
2023/10/31 11:33:48;;;;;;;2.85;0.93;;;;;;;;;;5083921;28;20200;-61
2023/10/31 11:36:15;;;;;;;6.13;1.13;;;;;;;;;;5083166;28;20199;-61
2023/10/31 11:38:42;;;;;;;4.47;1.05;;;;;;;;;;5085571;28;20251;-61
2023/10/31 11:41:08;;;;;;;2.05;0.80;;;;;;;;;;5087471;28;20200;-61
2023/10/31 11:43:53;;;;;;;3.20;1.05;;;;;;;;;;5085172;28;20204;-61
2023/10/31 11:46:22;;;;;;;1.75;1.05;;;;;;;;;;5083064;28;20278;-61
2023/10/31 11:48:50;;;;;;;3.08;0.93;;;;;;;;;;5086086;28;20212;-61
2023/10/31 11:51:16;;;;;;;2.03;1.23;;;;;;;;;;5086506;28;20203;-61
2023/10/31 11:53:44;;;;;;;1.63;1.00;;;;;;;;;;5084406;28;20467;-61
2023/10/31 11:56:11;;;;;;;2.05;1.58;;;;;;;;;;5082980;28;20250;-61
2023/10/31 11:58:37;;;;;;;13.20;1.67;;;;;;;;;;5084403;28;20199;-61
2023/10/31 12:01:04;;;;;;;4.53;0.95;;;;;;;;;;5086610;28;20479;-61
2023/10/31 12:03:39;;;;;;;1.00;0.80;;;;;;;;;;5085731;28;20582;-61
2023/10/31 12:06:06;;;;;;;4.70;1.10;;;;;;;;;;5082813;28;20243;-61
2023/10/31 12:08:33;;;;;;;1.17;0.73;;;;;;;;;;5083472;28;20219;-61
2023/10/31 12:11:06;;;;;;;7.15;0.98;;;;;;;;;;5086425;28;20207;-59
2023/10/31 12:13:34;;;;;;;7.07;1.35;;;;;;;;;;5085440;28;20195;-60
2023/10/31 12:16:01;;;;;;;4.22;0.80;;;;;;;;;;5082359;28;20216;-60
2023/10/31 12:18:27;;;;;;;2.30;0.80;;;;;;;;;;5082815;28;20200;-60
2023/10/31 12:20:56;;;;;;;1.48;0.95;;;;;;;;;;5082609;28;20219;-60
2023/10/31 12:23:22;;;;;;;1.13;0.73;;;;;;;;;;5081463;28;20203;-62
2023/10/31 12:25:48;;;;;;;3.58;0.95;;;;;;;;;;5085023;28;20227;-61
2023/10/31 12:28:18;;;;;;;4.40;1.20;;;;;;;;;;5086169;28;20215;-61
2023/10/31 12:30:48;;;;;;;2.95;0.77;;;;;;;;;;5083830;28;20664;-61
2023/10/31 12:33:14;;;;;;;1.35;0.70;;;;;;;;;;5083152;28;20196;-61
2023/10/31 12:35:40;;;;;;;3.50;0.80;;;;;;;;;;5084088;28;20221;-61
2023/10/31 12:38:10;;;;;;;1.60;0.43;;;;;;;;;;5086859;28;20196;-61
2023/10/31 12:40:36;;;;;;;1.23;0.70;;;;;;;;;;5085686;28;20207;-61
2023/10/31 12:43:03;;;;;;;3.97;0.90;;;;;;;;;;5083205;28;20262;-62
2023/10/31 12:45:29;;;;;;;3.17;1.27;;;;;;;;;;5082340;28;20228;-61
2023/10/31 12:48:03;;;;;;;1.70;1.00;;;;;;;;;;5082181;28;20209;-61
2023/10/31 12:50:29;;;;;;;2.00;0.93;;;;;;;;;;5082062;28;20200;-61
2023/10/31 12:52:57;;;;;;;1.15;0.63;;;;;;;;;;5085459;28;20195;-63
2023/10/31 12:55:25;;;;;;;2.58;0.70;;;;;;;;;;5085160;28;20243;-61
2023/10/31 12:57:52;;;;;;;1.67;0.77;;;;;;;;;;5082629;28;20205;-61
2023/10/31 13:00:24;;;;;;;3.28;0.70;;;;;;;;;;5082173;28;20204;-60
2023/10/31 13:02:51;;;;;;;2.88;0.80;;;;;;;;;;5084686;28;20258;-61
2023/10/31 13:05:17;;;;;;;2.20;0.90;;;;;;;;;;5085171;28;20220;-59
2023/10/31 13:07:48;;;;;;;0.88;0.60;;;;;;;;;;5083695;28;20211;-61
2023/10/31 13:10:16;;;;;;;0.70;0.70;;;;;;;;;;5081753;28;20200;-60
2023/10/31 13:12:46;;;;;;;2.05;1.20;;;;;;;;;;5083276;28;20196;-65
2023/10/31 13:15:12;;;;;;;2.38;1.05;;;;;;;;;;5085327;28;20219;-63
2023/10/31 13:17:38;;;;;;;1.90;0.90;;;;;;;;;;5084119;28;20203;-60
2023/10/31 13:20:06;;;;;;;1.13;1.00;;;;;;;;;;5099823;22;20810;-60
2023/10/31 13:22:32;;;;;;;1.10;0.68;;;;;;;;;;5097662;28;20202;-61
2023/10/31 13:24:59;;;;;;;0.82;0.40;;;;;;;;;;5093697;28;20216;-61
2023/10/31 13:27:25;;;;;;;1.40;0.40;;;;;;;;;;5094021;28;20200;-62
2023/10/31 13:29:52;;;;;;;0.50;0.50;;;;;;;;;;5090305;28;20215;-61
2023/10/31 13:32:20;;;;;;;1.00;0.70;;;;;;;;;;5079343;28;20219;-61
2023/10/31 13:34:46;;;;;;;1.95;0.50;;;;;;;;;;5090367;28;20220;-61
2023/10/31 13:37:12;;;;;;;0.75;0.40;;;;;;;;;;5094060;28;20199;-61
2023/10/31 13:39:38;;;;;;;2.83;0.55;;;;;;;;;;5092621;28;20188;-61
2023/10/31 13:42:05;;;;;;;0.55;0.40;;;;;;;;;;5081645;28;20263;-61
2023/10/31 13:44:31;;;;;;;1.98;0.50;;;;;;;;;;5089885;28;20220;-61
2023/10/31 13:46:59;;;;;;;0.95;0.60;;;;;;;;;;5092656;28;20196;-61
2023/10/31 13:49:25;;;;;;;0.63;0.57;;;;;;;;;;5086249;28;20223;-61
2023/10/31 13:51:51;;;;;;;0.68;0.60;;;;;;;;;;5081341;28;20207;-61
2023/10/31 13:54:19;;;;;;;2.08;1.00;;;;;;;;;;5089730;28;20680;-61
2023/10/31 13:56:45;;;;;;;1.05;0.93;;;;;;;;;;5081495;28;20211;-61
2023/10/31 13:59:11;;;;;;;1.20;0.90;;;;;;;;;;5081172;28;20199;-61
2023/10/31 14:01:38;;;;;;;2.92;1.00;;;;;;;;;;5081929;28;20211;-61
2023/10/31 14:04:07;;;;;;;0.93;0.70;;;;;;;;;;5080932;28;20215;-61
2023/10/31 14:06:33;;;;;;;0.90;0.60;;;;;;;;;;5081111;28;20213;-61
2023/10/31 14:08:59;;;;;;;2.45;0.70;;;;;;;;;;5081081;28;20224;-61
2023/10/31 14:11:26;;;;;;;0.43;0.43;;;;;;;;;;5081128;28;20196;-61
2023/10/31 14:13:52;;;;;;;1.42;0.73;;;;;;;;;;5081328;28;20204;-61
2023/10/31 14:16:19;;;;;;;0.73;0.63;;;;;;;;;;5080432;28;20200;-61
2023/10/31 14:18:45;;;;;;;0.77;0.47;;;;;;;;;;5080740;28;20193;-61
2023/10/31 14:21:13;;;;;;;2.22;0.77;;;;;;;;;;5080810;28;20307;-61
2023/10/31 14:23:39;;;;;;;0.65;0.60;;;;;;;;;;5080910;28;20204;-61
2023/10/31 14:26:06;;;;;;;1.17;0.70;;;;;;;;;;5081129;28;20224;-61
2023/10/31 14:28:32;;;;;;;1.35;0.95;;;;;;;;;;5079871;28;20219;-61
2023/10/31 14:30:59;;;;;;;2.65;0.75;;;;;;;;;;5078279;28;20212;-61
2023/10/31 14:33:25;;;;;;;3.22;0.90;;;;;;;;;;5078595;28;20219;-61
2023/10/31 14:35:51;;;;;;;0.85;0.85;;;;;;;;;;5078195;28;20227;-61
2023/10/31 14:38:19;;;;;;;0.80;0.80;;;;;;;;;;5079927;28;20211;-61
2023/10/31 14:40:45;;;;;;;0.98;0.85;;;;;;;;;;5079022;28;20684;-61